createdAt,value
2018-11-07T00:01:03.955Z,19.50
2018-11-07T00:03:32.472Z,20.23
2018-11-07T00:06:02.764Z,19.93
2018-11-07T00:08:31.482Z,19.70
2018-11-07T00:11:00.208Z,19.07
2018-11-07T00:13:28.797Z,19.07
2018-11-07T00:15:57.413Z,18.47
2018-11-07T00:18:25.951Z,18.07
2018-11-07T00:20:54.494Z,18.57
2018-11-07T00:23:23.143Z,18.40
2018-11-07T00:25:51.956Z,18.37
2018-11-07T00:28:20.467Z,18.50
2018-11-07T00:30:49.026Z,18.27
2018-11-07T00:33:18.098Z,18.90
2018-11-07T00:35:46.595Z,17.87
2018-11-07T00:38:15.189Z,19.20
2018-11-07T00:40:44.134Z,17.50
2018-11-07T00:43:12.652Z,17.17
2018-11-07T00:45:41.242Z,16.97
2018-11-07T00:48:09.888Z,17.47
2018-11-07T00:50:38.404Z,18.33
2018-11-07T00:53:07.999Z,18.17
2018-11-07T00:55:36.625Z,17.50
2018-11-07T00:58:05.888Z,16.37
2018-11-07T01:00:34.538Z,17.67
2018-11-07T01:03:05.451Z,17.40
2018-11-07T01:05:34.045Z,17.17
2018-11-07T01:08:03.663Z,15.83
2018-11-07T01:10:32.219Z,17.03
2018-11-07T01:13:00.760Z,17.87
2018-11-07T01:15:29.318Z,17.60
2018-11-07T01:17:58.207Z,16.77
2018-11-07T01:20:33.151Z,16.80
2018-11-07T01:23:02.815Z,17.20
2018-11-07T01:25:31.364Z,17.70
2018-11-07T01:28:00.020Z,16.90
2018-11-07T01:30:28.645Z,16.63
2018-11-07T01:32:57.198Z,16.53
2018-11-07T01:35:26.536Z,16.00
2018-11-07T01:37:55.084Z,14.93
2018-11-07T01:40:23.623Z,16.13
2018-11-07T01:42:52.293Z,16.27
2018-11-07T01:45:20.822Z,16.37
2018-11-07T01:47:49.399Z,15.20
2018-11-07T01:50:18.034Z,16.40
2018-11-07T01:52:46.658Z,14.67
2018-11-07T01:55:15.196Z,14.93
2018-11-07T01:57:43.704Z,15.93
2018-11-07T02:00:13.035Z,15.27
2018-11-07T02:02:43.028Z,15.23
2018-11-07T02:05:11.780Z,14.67
2018-11-07T02:07:40.789Z,14.37
2018-11-07T02:10:11.552Z,13.23
2018-11-07T02:12:40.715Z,13.97
2018-11-07T02:15:10.525Z,13.83
2018-11-07T02:17:39.254Z,13.73
2018-11-07T02:20:10.873Z,12.73
2018-11-07T02:22:39.720Z,12.27
2018-11-07T02:25:08.678Z,13.27
2018-11-07T02:27:37.850Z,12.53
2018-11-07T02:30:11.200Z,12.57
2018-11-07T02:32:39.708Z,11.93
2018-11-07T02:35:08.703Z,12.23
2018-11-07T02:37:37.429Z,12.57
2018-11-07T02:40:06.652Z,12.30
2018-11-07T02:42:35.171Z,12.33
2018-11-07T02:45:05.547Z,12.20
2018-11-07T02:47:34.217Z,12.23
2018-11-07T02:50:05.303Z,12.73
2018-11-07T02:52:33.802Z,11.40
2018-11-07T02:55:04.474Z,12.57
2018-11-07T02:57:39.340Z,12.77
2018-11-07T03:00:10.203Z,12.73
2018-11-07T03:02:38.895Z,12.07
2018-11-07T03:05:07.658Z,11.93
2018-11-07T03:07:36.742Z,12.97
2018-11-07T03:10:07.530Z,12.17
2018-11-07T03:12:36.058Z,11.17
2018-11-07T03:15:05.500Z,12.27
2018-11-07T03:17:34.048Z,12.20
2018-11-07T03:20:04.105Z,12.30
2018-11-07T03:22:32.614Z,12.60
2018-11-07T03:25:02.355Z,12.13
2018-11-07T03:27:30.898Z,11.97
2018-11-07T03:29:59.412Z,12.20
2018-11-07T03:32:28.172Z,12.33
2018-11-07T03:34:57.055Z,12.07
2018-11-07T03:37:25.573Z,12.17
2018-11-07T03:39:54.109Z,11.57
2018-11-07T03:42:22.891Z,12.80
2018-11-07T03:44:51.408Z,11.70
2018-11-07T03:47:19.913Z,12.20
2018-11-07T03:49:48.483Z,13.03
2018-11-07T03:52:17.135Z,11.87
2018-11-07T03:54:45.849Z,12.33
2018-11-07T03:57:14.403Z,12.77
2018-11-07T03:59:43.004Z,13.03
2018-11-07T04:02:11.558Z,12.47
2018-11-07T04:04:40.357Z,12.00
2018-11-07T04:07:08.985Z,12.13
2018-11-07T04:09:37.493Z,12.27
2018-11-07T04:12:06.048Z,11.67
2018-11-07T04:14:34.612Z,12.40
2018-11-07T04:17:05.288Z,13.53
2018-11-07T04:19:33.783Z,13.10
2018-11-07T04:22:03.685Z,12.50
2018-11-07T04:24:32.461Z,13.67
2018-11-07T04:27:03.125Z,13.20
2018-11-07T04:29:31.686Z,14.00
2018-11-07T04:32:00.285Z,13.87
2018-11-07T04:34:28.808Z,14.13
2018-11-07T04:36:57.743Z,14.00
2018-11-07T04:39:28.497Z,14.03
2018-11-07T04:41:57.057Z,14.13
2018-11-07T04:44:25.734Z,14.70
2018-11-07T04:46:54.436Z,14.13
2018-11-07T04:49:22.950Z,13.60
2018-11-07T04:51:51.534Z,13.73
2018-11-07T04:54:20.120Z,13.40
2018-11-07T04:56:48.733Z,14.30
2018-11-07T04:59:17.317Z,14.33
2018-11-07T05:01:45.819Z,14.47
2018-11-07T05:04:14.684Z,14.90
2018-11-07T05:06:43.391Z,14.80
2018-11-07T05:09:11.943Z,15.13
2018-11-07T05:11:40.454Z,15.00
2018-11-07T05:14:09.215Z,15.90
2018-11-07T05:16:37.749Z,15.33
2018-11-07T05:19:07.991Z,15.07
2018-11-07T05:21:36.634Z,15.40
2018-11-07T05:24:07.010Z,14.90
2018-11-07T05:26:35.543Z,15.87
2018-11-07T05:29:08.204Z,14.30
2018-11-07T05:31:36.691Z,15.93
2018-11-07T05:34:05.438Z,15.13
2018-11-07T05:36:33.947Z,14.63
2018-11-07T05:39:06.013Z,14.93
2018-11-07T05:41:34.596Z,15.70
2018-11-07T05:44:05.151Z,15.80
2018-11-07T05:46:33.681Z,15.00
2018-11-07T05:49:04.061Z,15.57
2018-11-07T05:51:32.747Z,14.87
2018-11-07T05:54:03.186Z,14.37
2018-11-07T05:56:31.695Z,14.97
2018-11-07T05:59:00.322Z,15.03
2018-11-07T06:01:28.852Z,13.90
2018-11-07T06:03:57.423Z,14.77
2018-11-07T06:06:26.123Z,15.20
2018-11-07T06:08:54.759Z,15.23
2018-11-07T06:11:23.453Z,15.77
2018-11-07T06:13:52.041Z,14.97
2018-11-07T06:16:21.161Z,15.20
2018-11-07T06:18:49.781Z,15.30
2018-11-07T06:21:18.315Z,15.50
2018-11-07T06:23:46.986Z,15.37
2018-11-07T06:26:15.883Z,16.83
2018-11-07T06:28:44.400Z,16.03
2018-11-07T06:31:12.903Z,16.87
2018-11-07T06:33:41.577Z,16.10
2018-11-07T06:36:10.168Z,16.43
2018-11-07T06:38:40.445Z,16.37
2018-11-07T06:41:09.023Z,16.30
2018-11-07T06:43:37.660Z,17.03
2018-11-07T06:46:06.627Z,17.33
2018-11-07T06:48:35.132Z,17.47
2018-11-07T06:51:05.363Z,16.67
2018-11-07T06:53:33.903Z,16.70
2018-11-07T06:56:03.864Z,16.33
2018-11-07T06:58:32.468Z,17.47
2018-11-07T07:01:05.470Z,17.80
2018-11-07T07:03:34.261Z,16.47
2018-11-07T07:06:04.458Z,16.23
2018-11-07T07:08:33.010Z,16.10
2018-11-07T07:11:06.284Z,15.57
2018-11-07T07:13:35.408Z,15.73
2018-11-07T07:16:05.526Z,15.93
2018-11-07T07:18:34.111Z,15.90
2018-11-07T07:21:04.153Z,15.80
2018-11-07T07:23:32.664Z,16.97
2018-11-07T07:26:03.276Z,15.53
2018-11-07T07:28:31.825Z,16.10
2018-11-07T07:31:00.415Z,15.60
2018-11-07T07:33:29.192Z,17.23
2018-11-07T07:35:57.829Z,16.33
2018-11-07T07:38:26.442Z,15.30
2018-11-07T07:40:55.277Z,14.93
2018-11-07T07:43:23.911Z,15.17
2018-11-07T07:45:52.607Z,14.73
2018-11-07T07:48:21.243Z,13.60
2018-11-07T07:50:49.865Z,13.43
2018-11-07T07:53:18.704Z,12.77
2018-11-07T07:55:47.334Z,12.83
2018-11-07T07:58:15.840Z,12.67
2018-11-07T08:00:44.710Z,12.07
2018-11-07T08:03:13.283Z,11.70
2018-11-07T08:05:41.901Z,11.70
2018-11-07T08:08:10.479Z,11.03
2018-11-07T08:10:39.057Z,10.23
2018-11-07T08:13:07.604Z,9.93
2018-11-07T08:15:36.136Z,9.30
2018-11-07T08:18:09.350Z,8.57
2018-11-07T08:20:37.984Z,8.10
2018-11-07T08:23:06.777Z,7.10
2018-11-07T08:25:35.749Z,7.80
2018-11-07T08:28:05.396Z,7.67
2018-11-07T08:30:34.385Z,7.83
2018-11-07T08:33:05.197Z,7.13
2018-11-07T08:35:34.987Z,7.40
2018-11-07T08:38:05.449Z,6.57
2018-11-07T08:40:34.279Z,5.83
2018-11-07T08:43:05.223Z,6.07
2018-11-07T08:45:33.816Z,5.93
2018-11-07T08:48:03.730Z,6.20
2018-11-07T08:50:32.216Z,6.10
2018-11-07T08:53:00.765Z,5.70
2018-11-07T08:55:29.338Z,5.90
2018-11-07T08:57:57.983Z,5.80
2018-11-07T09:00:26.522Z,5.47
2018-11-07T09:02:56.074Z,6.17
2018-11-07T09:05:24.676Z,5.70
2018-11-07T09:07:53.200Z,6.10
2018-11-07T09:10:23.254Z,6.10
2018-11-07T09:12:51.778Z,6.20
2018-11-07T09:15:21.544Z,5.43
2018-11-07T09:17:50.085Z,5.27
2018-11-07T09:20:20.616Z,6.10
2018-11-07T09:22:49.237Z,6.03
2018-11-07T09:25:17.951Z,5.10
2018-11-07T09:27:47.070Z,5.33
2018-11-07T09:30:17.043Z,5.20
2018-11-07T09:32:45.619Z,5.20
2018-11-07T09:35:14.555Z,5.40
2018-11-07T09:37:43.299Z,5.07
2018-11-07T09:40:17.172Z,4.97
2018-11-07T09:42:46.479Z,4.83
2018-11-07T09:45:16.517Z,5.00
2018-11-07T09:47:45.680Z,4.80
2018-11-07T09:50:15.277Z,4.43
2018-11-07T09:52:44.778Z,4.50
2018-11-07T09:55:14.973Z,4.50
2018-11-07T09:57:43.771Z,3.90
2018-11-07T10:00:14.208Z,4.30
2018-11-07T10:02:43.481Z,4.23
2018-11-07T10:05:12.601Z,3.90
2018-11-07T10:07:41.809Z,4.10
2018-11-07T10:10:13.685Z,4.10
2018-11-07T10:12:43.221Z,3.77
2018-11-07T10:15:12.337Z,4.10
2018-11-07T10:17:40.880Z,3.90
2018-11-07T10:20:12.829Z,3.70
2018-11-07T10:22:41.951Z,3.50
2018-11-07T10:25:11.269Z,3.73
2018-11-07T10:27:39.981Z,3.60
2018-11-07T10:30:10.681Z,3.43
2018-11-07T10:32:39.728Z,3.47
2018-11-07T10:35:08.590Z,3.60
2018-11-07T10:37:37.310Z,3.53
2018-11-07T10:40:09.021Z,3.23
2018-11-07T10:42:37.670Z,3.40
2018-11-07T10:45:06.850Z,3.10
2018-11-07T10:47:35.389Z,3.50
2018-11-07T10:50:08.898Z,2.90
2018-11-07T10:52:37.878Z,3.43
2018-11-07T10:55:07.109Z,3.10
2018-11-07T10:57:35.760Z,2.87
2018-11-07T11:00:06.994Z,2.80
2018-11-07T11:02:41.062Z,3.07
2018-11-07T11:05:09.826Z,2.93
2018-11-07T11:07:38.441Z,2.67
2018-11-07T11:10:07.192Z,3.00
2018-11-07T11:12:35.807Z,3.10
2018-11-07T11:15:07.799Z,2.80
2018-11-07T11:17:36.401Z,2.40
2018-11-07T11:20:06.859Z,2.70
2018-11-07T11:22:35.400Z,2.90
2018-11-07T11:25:06.145Z,2.60
2018-11-07T11:27:34.753Z,3.00
2018-11-07T11:30:05.172Z,2.70
2018-11-07T11:32:33.682Z,2.60
2018-11-07T11:35:03.959Z,2.40
2018-11-07T11:37:32.425Z,2.70
2018-11-07T11:40:00.950Z,2.53
2018-11-07T11:42:29.916Z,2.70
2018-11-07T11:44:58.551Z,2.57
2018-11-07T11:47:27.056Z,2.63
2018-11-07T11:49:55.658Z,2.67
2018-11-07T11:52:24.423Z,2.50
2018-11-07T11:54:53.004Z,2.20
2018-11-07T11:57:21.836Z,2.67
2018-11-07T11:59:50.625Z,2.50
2018-11-07T12:02:19.031Z,2.47
2018-11-07T12:04:47.495Z,2.70
2018-11-07T12:07:16.138Z,2.17
2018-11-07T12:09:44.643Z,2.40
2018-11-07T12:12:13.191Z,2.33
2018-11-07T12:14:41.740Z,2.30
2018-11-07T12:17:10.356Z,2.70
2018-11-07T12:19:39.005Z,2.77
2018-11-07T12:22:07.648Z,2.13
2018-11-07T12:24:37.492Z,2.20
2018-11-07T12:27:06.092Z,2.10
2018-11-07T12:29:34.627Z,2.60
2018-11-07T12:32:05.126Z,2.47
2018-11-07T12:34:33.665Z,2.20
2018-11-07T12:37:04.470Z,2.47
2018-11-07T12:39:33.025Z,1.90
2018-11-07T12:42:06.465Z,1.93
2018-11-07T12:44:35.510Z,2.10
2018-11-07T12:47:07.691Z,1.90
2018-11-07T12:49:36.281Z,1.80
2018-11-07T12:52:05.684Z,2.20
2018-11-07T12:54:34.240Z,1.83
2018-11-07T12:57:04.626Z,1.90
2018-11-07T12:59:33.276Z,2.13
2018-11-07T13:02:03.104Z,2.07
2018-11-07T13:04:31.718Z,2.37
2018-11-07T13:07:00.294Z,2.00
2018-11-07T13:09:28.895Z,1.80
2018-11-07T13:11:57.482Z,1.77
2018-11-07T13:14:26.125Z,2.10
2018-11-07T13:16:54.698Z,1.83
2018-11-07T13:19:23.333Z,1.73
2018-11-07T13:21:52.041Z,1.83
2018-11-07T13:24:20.582Z,1.70
2018-11-07T13:26:49.254Z,1.70
2018-11-07T13:29:17.842Z,1.93
2018-11-07T13:31:46.723Z,1.80
2018-11-07T13:34:15.395Z,1.80
2018-11-07T13:36:44.305Z,1.67
2018-11-07T13:39:14.089Z,1.90
2018-11-07T13:41:42.596Z,1.80
2018-11-07T13:44:11.248Z,2.07
2018-11-07T13:46:40.473Z,1.80
2018-11-07T13:49:09.117Z,1.90
2018-11-07T13:51:37.713Z,1.87
2018-11-07T13:54:07.102Z,1.90
2018-11-07T13:56:35.696Z,1.83
2018-11-07T13:59:06.602Z,1.73
2018-11-07T14:01:35.543Z,1.93
2018-11-07T14:04:06.030Z,1.80
2018-11-07T14:06:34.646Z,1.70
2018-11-07T14:09:06.782Z,1.80
2018-11-07T14:11:35.308Z,1.80
2018-11-07T14:14:06.082Z,2.10
2018-11-07T14:16:35.019Z,1.90
2018-11-07T14:19:06.559Z,1.87
2018-11-07T14:21:35.175Z,2.00
2018-11-07T14:24:07.309Z,1.93
2018-11-07T14:26:35.849Z,2.30
2018-11-07T14:29:05.816Z,1.90
2018-11-07T14:31:35.585Z,1.67
2018-11-07T14:34:05.621Z,2.20
2018-11-07T14:36:35.058Z,1.93
2018-11-07T14:39:07.277Z,1.90
2018-11-07T14:41:36.181Z,2.10
2018-11-07T14:44:05.258Z,2.30
2018-11-07T14:46:33.924Z,1.93
2018-11-07T14:49:05.137Z,1.90
2018-11-07T14:51:33.662Z,1.70
2018-11-07T14:54:03.773Z,2.37
2018-11-07T14:56:32.297Z,2.17
2018-11-07T14:59:00.986Z,1.90
2018-11-07T15:01:30.085Z,1.77
2018-11-07T15:03:58.649Z,2.57
2018-11-07T15:06:27.202Z,2.10
2018-11-07T15:08:55.799Z,2.10
2018-11-07T15:11:24.269Z,2.60
2018-11-07T15:13:52.774Z,2.17
2018-11-07T15:16:21.343Z,2.10
2018-11-07T15:18:49.886Z,2.03
2018-11-07T15:21:18.418Z,2.10
2018-11-07T15:23:47.005Z,2.40
2018-11-07T15:26:15.757Z,2.43
2018-11-07T15:28:44.364Z,2.60
2018-11-07T15:31:12.968Z,3.07
2018-11-07T15:33:41.511Z,2.60
2018-11-07T15:36:10.123Z,2.17
2018-11-07T15:38:38.581Z,2.53
2018-11-07T15:41:07.125Z,2.00
2018-11-07T15:43:35.727Z,2.00
2018-11-07T15:46:05.428Z,2.10
2018-11-07T15:48:34.008Z,2.10
2018-11-07T15:51:08.923Z,2.20
2018-11-07T15:53:37.454Z,2.30
2018-11-07T15:56:06.312Z,2.90
2018-11-07T15:58:35.098Z,2.63
2018-11-07T16:01:06.700Z,2.43
2018-11-07T16:03:42.124Z,2.77
2018-11-07T16:06:10.769Z,2.33
2018-11-07T16:08:39.274Z,2.10
2018-11-07T16:11:07.854Z,2.20
2018-11-07T16:13:37.517Z,2.63
2018-11-07T16:16:06.615Z,2.40
2018-11-07T16:18:35.240Z,1.93
2018-11-07T16:21:06.757Z,1.90
2018-11-07T16:23:35.358Z,2.17
2018-11-07T16:26:05.645Z,2.30
2018-11-07T16:28:34.510Z,2.20
2018-11-07T16:31:04.427Z,2.00
2018-11-07T16:33:33.045Z,2.53
2018-11-07T16:36:02.890Z,2.10
2018-11-07T16:38:31.458Z,1.90
2018-11-07T16:41:00.134Z,2.30
2018-11-07T16:43:28.642Z,2.20
2018-11-07T16:45:57.197Z,2.23
2018-11-07T16:48:25.821Z,2.27
2018-11-07T16:50:54.372Z,2.30
2018-11-07T16:53:23.062Z,2.20
2018-11-07T16:55:51.643Z,2.23
2018-11-07T16:58:20.200Z,2.33
2018-11-07T17:00:48.761Z,2.10
2018-11-07T17:03:17.444Z,2.27
2018-11-07T17:05:46.059Z,2.00
2018-11-07T17:08:15.017Z,2.00
2018-11-07T17:10:43.572Z,2.60
2018-11-07T17:13:12.112Z,2.97
2018-11-07T17:15:41.352Z,2.20
2018-11-07T17:18:09.915Z,2.73
2018-11-07T17:20:38.476Z,3.30
2018-11-07T17:23:06.994Z,3.13
2018-11-07T17:25:36.977Z,2.97
2018-11-07T17:28:06.594Z,3.30
2018-11-07T17:30:35.141Z,2.83
2018-11-07T17:33:07.105Z,3.10
2018-11-07T17:35:35.725Z,2.80
2018-11-07T17:38:06.147Z,3.30
2018-11-07T17:40:34.836Z,3.63
2018-11-07T17:43:10.104Z,3.30
2018-11-07T17:45:39.041Z,3.37
2018-11-07T17:48:07.696Z,3.17
2018-11-07T17:50:36.325Z,3.70
2018-11-07T17:53:07.637Z,2.90
2018-11-07T17:55:36.447Z,2.80
2018-11-07T17:58:05.747Z,3.20
2018-11-07T18:00:35.027Z,2.40
2018-11-07T18:03:06.275Z,2.60
2018-11-07T18:05:35.645Z,3.13
2018-11-07T18:08:05.807Z,2.43
2018-11-07T18:10:34.627Z,2.63
2018-11-07T18:13:07.030Z,2.70
2018-11-07T18:15:35.657Z,2.37
2018-11-07T18:18:06.176Z,2.80
2018-11-07T18:20:35.094Z,2.73
2018-11-07T18:23:06.989Z,2.60
2018-11-07T18:25:35.667Z,3.00
2018-11-07T18:28:06.208Z,2.80
2018-11-07T18:30:34.835Z,2.20
2018-11-07T18:33:07.917Z,2.50
2018-11-07T18:35:36.584Z,3.07
2018-11-07T18:38:05.725Z,2.33
2018-11-07T18:40:34.678Z,2.33
2018-11-07T18:43:05.270Z,2.50
2018-11-07T18:45:33.784Z,2.77
2018-11-07T18:48:04.465Z,2.60
2018-11-07T18:50:33.740Z,2.50
2018-11-07T18:53:04.265Z,2.30
2018-11-07T18:55:32.859Z,2.43
2018-11-07T18:58:02.815Z,2.30
2018-11-07T19:00:32.512Z,2.50
2018-11-07T19:03:03.657Z,2.87
2018-11-07T19:05:33.034Z,2.50
2018-11-07T19:08:02.867Z,2.70
2018-11-07T19:10:31.450Z,2.50
2018-11-07T19:13:00.070Z,2.67
2018-11-07T19:15:29.523Z,2.30
2018-11-07T19:17:58.304Z,2.53
2018-11-07T19:20:27.471Z,2.83
2018-11-07T19:22:56.007Z,3.03
2018-11-07T19:25:24.668Z,2.90
2018-11-07T19:27:53.646Z,3.00
2018-11-07T19:30:23.447Z,2.87
2018-11-07T19:32:53.756Z,2.80
2018-11-07T19:35:23.174Z,3.03
2018-11-07T19:37:52.705Z,2.87
2018-11-07T19:40:24.135Z,2.87
2018-11-07T19:42:56.971Z,2.50
2018-11-07T19:45:25.786Z,2.70
2018-11-07T19:47:55.461Z,2.60
2018-11-07T19:50:24.704Z,3.00
2018-11-07T19:52:53.719Z,3.00
2018-11-07T19:55:24.040Z,3.17
2018-11-07T19:57:57.602Z,2.77
2018-11-07T20:00:27.413Z,3.10
2018-11-07T20:02:56.525Z,3.00
2018-11-07T20:05:25.361Z,2.83
2018-11-07T20:07:54.385Z,2.53
2018-11-07T20:10:23.698Z,2.80
2018-11-07T20:12:52.396Z,2.60
2018-11-07T20:15:22.639Z,2.60
2018-11-07T20:17:51.951Z,2.63
2018-11-07T20:20:20.637Z,2.87
2018-11-07T20:22:49.369Z,2.83
2018-11-07T20:25:19.385Z,2.83
2018-11-07T20:27:49.204Z,2.60
2018-11-07T20:30:19.362Z,2.70
2018-11-07T20:32:48.110Z,2.80
2018-11-07T20:35:18.115Z,2.40
2018-11-07T20:37:47.971Z,3.03
2018-11-07T20:40:20.022Z,2.83
2018-11-07T20:42:48.754Z,2.67
2018-11-07T20:45:18.420Z,3.10
2018-11-07T20:47:47.558Z,2.90
2018-11-07T20:50:18.060Z,2.83
2018-11-07T20:52:47.149Z,2.67
2018-11-07T20:55:16.884Z,2.87
2018-11-07T20:57:47.069Z,3.00
2018-11-07T21:00:18.095Z,3.20
2018-11-07T21:02:47.389Z,2.77
2018-11-07T21:05:16.355Z,2.83
2018-11-07T21:07:45.160Z,3.10
2018-11-07T21:10:16.724Z,3.00
2018-11-07T21:12:45.841Z,2.80
2018-11-07T21:15:15.562Z,2.80
2018-11-07T21:17:44.757Z,3.03
2018-11-07T21:20:13.353Z,3.10
2018-11-07T21:22:42.529Z,2.80
2018-11-07T21:25:11.671Z,2.90
2018-11-07T21:27:40.941Z,2.80
2018-11-07T21:30:11.762Z,3.03
2018-11-07T21:32:42.085Z,2.60
2018-11-07T21:35:10.850Z,2.53
2018-11-07T21:37:39.437Z,2.67
2018-11-07T21:40:10.674Z,2.30
2018-11-07T21:42:39.581Z,2.63
2018-11-07T21:45:09.876Z,2.47
2018-11-07T21:47:38.926Z,2.30
2018-11-07T21:50:08.810Z,2.00
2018-11-07T21:52:37.717Z,2.27
2018-11-07T21:55:06.577Z,2.40
2018-11-07T21:57:35.415Z,2.20
2018-11-07T22:00:08.935Z,2.27
2018-11-07T22:02:37.549Z,2.80
2018-11-07T22:05:06.831Z,2.57
2018-11-07T22:07:35.367Z,2.60
2018-11-07T22:10:06.261Z,2.20
2018-11-07T22:12:34.783Z,2.60
2018-11-07T22:15:05.245Z,2.73
2018-11-07T22:17:33.753Z,2.73
2018-11-07T22:20:03.555Z,2.73
2018-11-07T22:22:32.159Z,2.30
2018-11-07T22:25:02.771Z,2.80
2018-11-07T22:27:32.145Z,2.70
2018-11-07T22:30:00.717Z,2.83
2018-11-07T22:32:29.268Z,3.03
2018-11-07T22:34:58.024Z,2.80
2018-11-07T22:37:26.577Z,2.90
2018-11-07T22:39:55.168Z,3.03
2018-11-07T22:42:23.682Z,2.90
2018-11-07T22:44:52.238Z,3.00
2018-11-07T22:47:20.905Z,2.73
2018-11-07T22:49:49.658Z,2.87
2018-11-07T22:52:19.881Z,2.90
2018-11-07T22:54:48.482Z,2.87
2018-11-07T22:57:17.106Z,2.87
2018-11-07T22:59:46.040Z,2.90
2018-11-07T23:02:14.561Z,3.00
2018-11-07T23:04:43.049Z,2.90
2018-11-07T23:07:11.605Z,2.60
2018-11-07T23:09:40.462Z,2.60
2018-11-07T23:12:09.108Z,3.13
2018-11-07T23:14:39.419Z,2.77
2018-11-07T23:17:08.148Z,3.00
2018-11-07T23:19:36.685Z,2.83
2018-11-07T23:22:06.151Z,3.30
2018-11-07T23:24:34.799Z,3.23
2018-11-07T23:27:04.568Z,2.80
2018-11-07T23:29:33.078Z,3.03
2018-11-07T23:32:03.350Z,2.83
2018-11-07T23:34:31.990Z,3.20
2018-11-07T23:37:00.814Z,3.03
2018-11-07T23:39:29.502Z,3.13
2018-11-07T23:41:58.003Z,2.80
2018-11-07T23:44:26.604Z,2.63
2018-11-07T23:46:55.181Z,2.70
2018-11-07T23:49:23.813Z,3.37
2018-11-07T23:51:52.722Z,2.93
2018-11-07T23:54:22.292Z,2.90
2018-11-07T23:56:51.516Z,3.13
2018-11-07T23:59:20.347Z,2.97
